Adna, Washington
Current Conditions -  °F | °C
As of 8:55 AM on Wednesday 22 Oct 2014 (Local Time) from KCLS Reporting Station
Light Rain Light Rain  
Wind Chill: 55°   Ceiling: 3900
Heat Index: 55°   Visibility: 7mi
Dew Point: 55°   Wind: 14mph
Humidity: 100%   Direction: 180°S
Pressure: 29.71"   Gusts: NA
Location:  46.63°N, 123.06°W
Report Text: KCLS 221555Z AUTO 18012KT 7SM -RA FEW014 OVC039 13/13 A2971 RMK AO2
Loading
Personal Weather Stations






























Interactive Weather Map New forecast layout! Learn more

10-Day Weather Forecast

Advertisements
Track Severe Weather on mobile